sensor_id;sensor_type;location;lat;lon;timestamp;pressure;altitude;pressure_sealevel;temperature;humidity
62126;BME280;48112;53.282;6.150;2023-03-20T00:00:35;101970.38;;;16.58;52.97
62126;BME280;48112;53.282;6.150;2023-03-20T00:01:38;101981.28;;;16.58;52.87
62126;BME280;48112;53.282;6.150;2023-03-20T00:02:40;101970.38;;;16.58;52.79
62126;BME280;48112;53.282;6.150;2023-03-20T00:03:42;101981.28;;;16.58;52.87
62126;BME280;48112;53.282;6.150;2023-03-20T00:04:44;101973.13;;;16.58;52.96
62126;BME280;48112;53.282;6.150;2023-03-20T00:05:47;101970.38;;;16.58;52.76
62126;BME280;48112;53.282;6.150;2023-03-20T00:06:51;101968.81;;;16.57;52.53
62126;BME280;48112;53.282;6.150;2023-03-20T00:07:53;101970.38;;;16.58;52.55
62126;BME280;48112;53.282;6.150;2023-03-20T00:08:55;101968.81;;;16.57;52.68
62126;BME280;48112;53.282;6.150;2023-03-20T00:09:58;101973.47;;;16.56;52.44
62126;BME280;48112;53.282;6.150;2023-03-20T00:11:00;101970.38;;;16.58;52.92
62126;BME280;48112;53.282;6.150;2023-03-20T00:12:03;101982.09;;;16.58;52.69
62126;BME280;48112;53.282;6.150;2023-03-20T00:13:06;101979.72;;;16.57;52.94
62126;BME280;48112;53.282;6.150;2023-03-20T00:14:09;101990.63;;;16.57;52.88
62126;BME280;48112;53.282;6.150;2023-03-20T00:15:21;101987.91;;;16.57;52.91
62126;BME280;48112;53.282;6.150;2023-03-20T00:16:26;101984.38;;;16.56;52.61
62126;BME280;48112;53.282;6.150;2023-03-20T00:17:31;101982.44;;;16.57;52.85
62126;BME280;48112;53.282;6.150;2023-03-20T00:18:33;101984.38;;;16.56;52.75
62126;BME280;48112;53.282;6.150;2023-03-20T00:19:36;101991.75;;;16.56;52.56
62126;BME280;48112;53.282;6.150;2023-03-20T00:20:38;102002.31;;;16.57;52.69
62126;BME280;48112;53.282;6.150;2023-03-20T00:21:40;101997.22;;;16.56;52.37
62126;BME280;48112;53.282;6.150;2023-03-20T00:22:42;101994.47;;;16.56;52.59
62126;BME280;48112;53.282;6.150;2023-03-20T00:23:45;101989.81;;;16.56;52.48
62126;BME280;48112;53.282;6.150;2023-03-20T00:24:48;101999.94;;;16.56;52.88
62126;BME280;48112;53.282;6.150;2023-03-20T00:25:51;101987.09;;;16.56;52.37
62126;BME280;48112;53.282;6.150;2023-03-20T00:26:52;101983.56;;;16.56;52.83
62126;BME280;48112;53.282;6.150;2023-03-20T00:27:56;101989.81;;;16.56;52.87
62126;BME280;48112;53.282;6.150;2023-03-20T00:28:58;101988.25;;;16.55;52.57
62126;BME280;48112;53.282;6.150;2023-03-20T00:30:01;101985.53;;;16.55;52.92
62126;BME280;48112;53.282;6.150;2023-03-20T00:31:04;101986.66;;;16.54;52.50
62126;BME280;48112;53.282;6.150;2023-03-20T00:32:07;101994.47;;;16.56;52.77
62126;BME280;48112;53.282;6.150;2023-03-20T00:33:12;101982.81;;;16.55;52.86
62126;BME280;48112;53.282;6.150;2023-03-20T00:34:15;101991.75;;;16.56;52.59
62126;BME280;48112;53.282;6.150;2023-03-20T00:35:21;101987.44;;;16.55;52.80
62126;BME280;48112;53.282;6.150;2023-03-20T00:36:24;101994.84;;;16.54;52.53
62126;BME280;48112;53.282;6.150;2023-03-20T00:37:26;101993.72;;;16.55;52.80
62126;BME280;48112;53.282;6.150;2023-03-20T00:38:31;101998.34;;;16.55;52.81
62126;BME280;48112;53.282;6.150;2023-03-20T00:39:32;101989.03;;;16.56;52.74
62126;BME280;48112;53.282;6.150;2023-03-20T00:40:35;101998.34;;;16.55;52.72
62126;BME280;48112;53.282;6.150;2023-03-20T00:41:39;101992.91;;;16.55;52.63
62126;BME280;48112;53.282;6.150;2023-03-20T00:42:43;101995.63;;;16.55;52.72
62126;BME280;48112;53.282;6.150;2023-03-20T00:43:49;101998.34;;;16.55;52.60
62126;BME280;48112;53.282;6.150;2023-03-20T00:44:53;101998.34;;;16.55;52.70
62126;BME280;48112;53.282;6.150;2023-03-20T00:45:59;102001.09;;;16.55;52.36
62126;BME280;48112;53.282;6.150;2023-03-20T00:47:03;101996.78;;;16.54;52.69
62126;BME280;48112;53.282;6.150;2023-03-20T00:48:07;101999.50;;;16.54;52.75
62126;BME280;48112;53.282;6.150;2023-03-20T00:49:12;102002.25;;;16.54;52.49
62126;BME280;48112;53.282;6.150;2023-03-20T00:50:15;101996.78;;;16.54;52.62
62126;BME280;48112;53.282;6.150;2023-03-20T00:51:18;102004.16;;;16.53;52.67
62126;BME280;48112;53.282;6.150;2023-03-20T00:52:21;101996.78;;;16.54;52.58
62126;BME280;48112;53.282;6.150;2023-03-20T00:53:25;102008.81;;;16.53;52.53
62126;BME280;48112;53.282;6.150;2023-03-20T00:54:28;102006.91;;;16.53;52.04
62126;BME280;48112;53.282;6.150;2023-03-20T00:55:29;102002.25;;;16.54;52.57
62126;BME280;48112;53.282;6.150;2023-03-20T00:56:33;102002.25;;;16.54;52.73
62126;BME280;48112;53.282;6.150;2023-03-20T00:57:37;102002.25;;;16.54;52.67
62126;BME280;48112;53.282;6.150;2023-03-20T00:58:41;101996.78;;;16.54;51.98
62126;BME280;48112;53.282;6.150;2023-03-20T00:59:46;102000.63;;;16.53;52.47
62126;BME280;48112;53.282;6.150;2023-03-20T01:00:52;102002.25;;;16.54;52.75
62126;BME280;48112;53.282;6.150;2023-03-20T01:01:55;101998.72;;;16.53;52.66
62126;BME280;48112;53.282;6.150;2023-03-20T01:02:59;101995.19;;;16.53;52.80
62126;BME280;48112;53.282;6.150;2023-03-20T01:04:02;101995.19;;;16.53;52.41
62126;BME280;48112;53.282;6.150;2023-03-20T01:05:04;102000.63;;;16.53;52.89
62126;BME280;48112;53.282;6.150;2023-03-20T01:06:07;101999.06;;;16.52;52.46
62126;BME280;48112;53.282;6.150;2023-03-20T01:07:11;101998.72;;;16.53;52.73
62126;BME280;48112;53.282;6.150;2023-03-20T01:08:16;101997.91;;;16.53;52.69
62126;BME280;48112;53.282;6.150;2023-03-20T01:09:18;102001.44;;;16.53;52.58
62126;BME280;48112;53.282;6.150;2023-03-20T01:10:29;102000.63;;;16.53;52.58
62126;BME280;48112;53.282;6.150;2023-03-20T01:11:33;102000.63;;;16.53;52.67
62126;BME280;48112;53.282;6.150;2023-03-20T01:12:36;101995.19;;;16.53;52.60
62126;BME280;48112;53.282;6.150;2023-03-20T01:13:41;101998.72;;;16.53;52.47
62126;BME280;48112;53.282;6.150;2023-03-20T01:14:42;101988.16;;;16.52;52.61
62126;BME280;48112;53.282;6.150;2023-03-20T01:15:45;101985.44;;;16.52;52.40
62126;BME280;48112;53.282;6.150;2023-03-20T01:16:48;101975.69;;;16.51;52.62
62126;BME280;48112;53.282;6.150;2023-03-20T01:17:51;101976.09;;;16.53;52.63
62126;BME280;48112;53.282;6.150;2023-03-20T01:18:54;101974.53;;;16.52;52.63
62126;BME280;48112;53.282;6.150;2023-03-20T01:19:57;101988.16;;;16.52;52.43
62126;BME280;48112;53.282;6.150;2023-03-20T01:20:59;101986.25;;;16.52;52.40
62126;BME280;48112;53.282;6.150;2023-03-20T01:22:02;101990.88;;;16.52;52.44
62126;BME280;48112;53.282;6.150;2023-03-20T01:23:04;101995.19;;;16.53;52.71
62126;BME280;48112;53.282;6.150;2023-03-20T01:24:07;101995.19;;;16.53;52.47
62126;BME280;48112;53.282;6.150;2023-03-20T01:25:09;101994.41;;;16.52;52.47
62126;BME280;48112;53.282;6.150;2023-03-20T01:26:22;101988.16;;;16.52;52.80
62126;BME280;48112;53.282;6.150;2023-03-20T01:27:24;101991.69;;;16.52;52.75
62126;BME280;48112;53.282;6.150;2023-03-20T01:28:27;101985.44;;;16.52;52.62
62126;BME280;48112;53.282;6.150;2023-03-20T01:29:31;101990.88;;;16.52;52.42
62126;BME280;48112;53.282;6.150;2023-03-20T01:30:33;101988.97;;;16.52;52.65
62126;BME280;48112;53.282;6.150;2023-03-20T01:31:36;101985.44;;;16.52;52.45
62126;BME280;48112;53.282;6.150;2023-03-20T01:32:38;101979.19;;;16.51;52.44
62126;BME280;48112;53.282;6.150;2023-03-20T01:33:41;101975.34;;;16.52;52.57
62126;BME280;48112;53.282;6.150;2023-03-20T01:34:44;101966.34;;;16.52;52.44
62126;BME280;48112;53.282;6.150;2023-03-20T01:35:48;101960.91;;;16.52;52.42
62126;BME280;48112;53.282;6.150;2023-03-20T01:36:51;101972.97;;;16.51;52.43
62126;BME280;48112;53.282;6.150;2023-03-20T01:37:54;101961.69;;;16.52;52.50
62126;BME280;48112;53.282;6.150;2023-03-20T01:38:57;101967.91;;;16.53;52.71
62126;BME280;48112;53.282;6.150;2023-03-20T01:40:00;101973.72;;;16.51;52.55
62126;BME280;48112;53.282;6.150;2023-03-20T01:41:05;101971.81;;;16.52;52.63
62126;BME280;48112;53.282;6.150;2023-03-20T01:42:12;101979.97;;;16.52;52.63
62126;BME280;48112;53.282;6.150;2023-03-20T01:43:17;101978.06;;;16.52;52.67
62126;BME280;48112;53.282;6.150;2023-03-20T01:44:23;101973.72;;;16.51;52.46
62126;BME280;48112;53.282;6.150;2023-03-20T01:45:30;101977.25;;;16.52;52.76
62126;BME280;48112;53.282;6.150;2023-03-20T01:46:34;101977.25;;;16.52;52.41
62126;BME280;48112;53.282;6.150;2023-03-20T01:47:46;101971.81;;;16.52;52.67
62126;BME280;48112;53.282;6.150;2023-03-20T01:48:59;101960.91;;;16.52;52.34
62126;BME280;48112;53.282;6.150;2023-03-20T01:51:41;101956.25;;;16.52;52.61
62126;BME280;48112;53.282;6.150;2023-03-20T01:52:45;101963.63;;;16.52;52.70
62126;BME280;48112;53.282;6.150;2023-03-20T01:53:50;101955.44;;;16.52;52.60
62126;BME280;48112;53.282;6.150;2023-03-20T01:54:53;101958.19;;;16.52;52.45
62126;BME280;48112;53.282;6.150;2023-03-20T01:55:56;101954.66;;;16.51;52.71
62126;BME280;48112;53.282;6.150;2023-03-20T01:57:05;101954.66;;;16.51;52.53
62126;BME280;48112;53.282;6.150;2023-03-20T01:58:11;101950.00;;;16.52;52.78
62126;BME280;48112;53.282;6.150;2023-03-20T01:59:15;101952.72;;;16.52;52.55
62126;BME280;48112;53.282;6.150;2023-03-20T02:00:20;101952.72;;;16.52;52.45
62126;BME280;48112;53.282;6.150;2023-03-20T02:01:22;101944.53;;;16.52;52.74
62126;BME280;48112;53.282;6.150;2023-03-20T02:02:28;101940.25;;;16.51;52.67
62126;BME280;48112;53.282;6.150;2023-03-20T02:03:30;101934.78;;;16.51;52.56
62126;BME280;48112;53.282;6.150;2023-03-20T02:04:55;101933.63;;;16.52;52.72
62126;BME280;48112;53.282;6.150;2023-03-20T02:05:58;101927.38;;;16.51;52.42
62126;BME280;48112;53.282;6.150;2023-03-20T02:07:22;101930.91;;;16.52;52.75
62126;BME280;48112;53.282;6.150;2023-03-20T02:08:34;101932.84;;;16.51;52.65
62126;BME280;48112;53.282;6.150;2023-03-20T02:09:38;101935.56;;;16.51;52.56
62126;BME280;48112;53.282;6.150;2023-03-20T02:10:45;101938.28;;;16.51;52.61
62126;BME280;48112;53.282;6.150;2023-03-20T02:11:57;101939.09;;;16.52;52.71
62126;BME280;48112;53.282;6.150;2023-03-20T02:13:01;101937.50;;;16.51;52.90
62126;BME280;48112;53.282;6.150;2023-03-20T02:14:12;101937.50;;;16.51;52.85
62126;BME280;48112;53.282;6.150;2023-03-20T02:15:24;101930.09;;;16.51;52.86
62126;BME280;48112;53.282;6.150;2023-03-20T02:16:40;101927.38;;;16.51;52.83
62126;BME280;48112;53.282;6.150;2023-03-20T02:17:49;101936.38;;;16.52;52.85
62126;BME280;48112;53.282;6.150;2023-03-20T02:18:51;101927.38;;;16.51;52.52
62126;BME280;48112;53.282;6.150;2023-03-20T02:20:00;101920.28;;;16.47;52.89
62126;BME280;48112;53.282;6.150;2023-03-20T02:22:35;101928.97;;;16.52;52.75
62126;BME280;48112;53.282;6.150;2023-03-20T02:23:50;101918.09;;;16.52;52.75
62126;BME280;48112;53.282;6.150;2023-03-20T02:25:14;101920.00;;;16.52;52.65
62126;BME280;48112;53.282;6.150;2023-03-20T02:26:26;101911.72;;;16.48;52.75
62126;BME280;48112;53.282;6.150;2023-03-20T02:27:33;101917.28;;;16.52;52.60
62126;BME280;48112;53.282;6.150;2023-03-20T02:28:48;101918.84;;;16.53;52.85
62126;BME280;48112;53.282;6.150;2023-03-20T02:30:02;101914.56;;;16.52;52.78
62126;BME280;48112;53.282;6.150;2023-03-20T02:31:23;101911.03;;;16.51;52.58
62126;BME280;48112;53.282;6.150;2023-03-20T02:32:43;101905.56;;;16.51;52.81
62126;BME280;48112;53.282;6.150;2023-03-20T02:33:59;101909.09;;;16.52;52.92
62126;BME280;48112;53.282;6.150;2023-03-20T02:35:12;101915.34;;;16.52;52.85
62126;BME280;48112;53.282;6.150;2023-03-20T02:36:35;101911.81;;;16.52;52.65
62126;BME280;48112;53.282;6.150;2023-03-20T02:37:48;101910.25;;;16.51;52.55
62126;BME280;48112;53.282;6.150;2023-03-20T02:38:57;101917.28;;;16.52;52.62
62126;BME280;48112;53.282;6.150;2023-03-20T02:40:08;101911.81;;;16.52;52.64
62126;BME280;48112;53.282;6.150;2023-03-20T02:41:14;101909.09;;;16.52;52.76
62126;BME280;48112;53.282;6.150;2023-03-20T02:42:22;101913.75;;;16.51;52.66
62126;BME280;48112;53.282;6.150;2023-03-20T02:43:31;101904.81;;;16.51;52.65
62126;BME280;48112;53.282;6.150;2023-03-20T02:44:42;101902.84;;;16.51;52.74
62126;BME280;48112;53.282;6.150;2023-03-20T02:45:48;101900.91;;;16.52;52.66
62126;BME280;48112;53.282;6.150;2023-03-20T02:46:55;101896.63;;;16.51;52.81
62126;BME280;48112;53.282;6.150;2023-03-20T02:48:04;101893.91;;;16.51;52.84
62126;BME280;48112;53.282;6.150;2023-03-20T02:49:14;101900.13;;;16.51;52.66
62126;BME280;48112;53.282;6.150;2023-03-20T02:50:22;101899.34;;;16.51;52.76
62126;BME280;48112;53.282;6.150;2023-03-20T02:51:29;101898.19;;;16.52;52.67
62126;BME280;48112;53.282;6.150;2023-03-20T02:52:35;101884.56;;;16.52;52.82
62126;BME280;48112;53.282;6.150;2023-03-20T02:53:48;101886.50;;;16.51;53.07
62126;BME280;48112;53.282;6.150;2023-03-20T02:54:56;101892.75;;;16.52;52.75
62126;BME280;48112;53.282;6.150;2023-03-20T02:56:05;101890.81;;;16.52;52.72
62126;BME280;48112;53.282;6.150;2023-03-20T02:57:14;101890.03;;;16.52;52.90
62126;BME280;48112;53.282;6.150;2023-03-20T02:58:19;101897.41;;;16.51;52.75
62126;BME280;48112;53.282;6.150;2023-03-20T02:59:25;101890.03;;;16.52;52.93
62126;BME280;48112;53.282;6.150;2023-03-20T03:00:31;101888.44;;;16.51;52.71
62126;BME280;48112;53.282;6.150;2023-03-20T03:01:39;101889.22;;;16.51;52.87
62126;BME280;48112;53.282;6.150;2023-03-20T03:02:43;101884.56;;;16.52;52.76
62126;BME280;48112;53.282;6.150;2023-03-20T03:03:49;101884.56;;;16.52;52.90
62126;BME280;48112;53.282;6.150;2023-03-20T03:04:55;101872.09;;;16.51;53.00
62126;BME280;48112;53.282;6.150;2023-03-20T03:06:00;101874.81;;;16.51;52.70
62126;BME280;48112;53.282;6.150;2023-03-20T03:07:04;101877.53;;;16.51;52.75
62126;BME280;48112;53.282;6.150;2023-03-20T03:08:09;101877.53;;;16.51;52.98
62126;BME280;48112;53.282;6.150;2023-03-20T03:09:16;101879.13;;;16.52;52.97
62126;BME280;48112;53.282;6.150;2023-03-20T03:10:21;101878.31;;;16.51;52.75
62126;BME280;48112;53.282;6.150;2023-03-20T03:11:24;101868.56;;;16.50;52.88
62126;BME280;48112;53.282;6.150;2023-03-20T03:12:28;101865.03;;;16.50;52.77
62126;BME280;48112;53.282;6.150;2023-03-20T03:13:33;101866.63;;;16.51;52.73
62126;BME280;48112;53.282;6.150;2023-03-20T03:14:39;101867.41;;;16.51;52.66
62126;BME280;48112;53.282;6.150;2023-03-20T03:15:47;101863.91;;;16.51;52.69
62126;BME280;48112;53.282;6.150;2023-03-20T03:16:51;101861.19;;;16.51;52.74
62126;BME280;48112;53.282;6.150;2023-03-20T03:17:54;101861.94;;;16.51;52.67
62126;BME280;48112;53.282;6.150;2023-03-20T03:19:02;101861.94;;;16.51;52.67
62126;BME280;48112;53.282;6.150;2023-03-20T03:20:08;101860.03;;;16.52;52.93
62126;BME280;48112;53.282;6.150;2023-03-20T03:21:16;101855.72;;;16.51;52.67
62126;BME280;48112;53.282;6.150;2023-03-20T03:22:19;101860.03;;;16.52;52.71
62126;BME280;48112;53.282;6.150;2023-03-20T03:23:26;101863.91;;;16.51;52.87
62126;BME280;48112;53.282;6.150;2023-03-20T03:24:30;101866.63;;;16.51;52.70
62126;BME280;48112;53.282;6.150;2023-03-20T03:25:42;101857.31;;;16.52;53.05
62126;BME280;48112;53.282;6.150;2023-03-20T03:26:46;101861.19;;;16.51;52.77
62126;BME280;48112;53.282;6.150;2023-03-20T03:27:48;101865.47;;;16.52;53.04
62126;BME280;48112;53.282;6.150;2023-03-20T03:28:57;101862.75;;;16.52;53.11
62126;BME280;48112;53.282;6.150;2023-03-20T03:30:00;101853.00;;;16.51;52.98
62126;BME280;48112;53.282;6.150;2023-03-20T03:31:05;101850.28;;;16.51;52.93
62126;BME280;48112;53.282;6.150;2023-03-20T03:32:18;101851.06;;;16.51;52.98
62126;BME280;48112;53.282;6.150;2023-03-20T03:33:23;101850.28;;;16.51;53.01
62126;BME280;48112;53.282;6.150;2023-03-20T03:34:25;101847.56;;;16.51;52.65
62126;BME280;48112;53.282;6.150;2023-03-20T03:35:28;101839.38;;;16.51;52.77
62126;BME280;48112;53.282;6.150;2023-03-20T03:36:35;101847.56;;;16.51;53.01
62126;BME280;48112;53.282;6.150;2023-03-20T03:37:41;101840.50;;;16.50;52.96
62126;BME280;48112;53.282;6.150;2023-03-20T03:38:45;101844.81;;;16.51;52.71
62126;BME280;48112;53.282;6.150;2023-03-20T03:39:53;101844.81;;;16.51;52.74
62126;BME280;48112;53.282;6.150;2023-03-20T03:41:09;101840.94;;;16.52;52.90
62126;BME280;48112;53.282;6.150;2023-03-20T03:42:17;101840.94;;;16.52;52.75
62126;BME280;48112;53.282;6.150;2023-03-20T03:43:23;101841.31;;;16.50;52.86
62126;BME280;48112;53.282;6.150;2023-03-20T03:44:30;101837.78;;;16.50;52.74
62126;BME280;48112;53.282;6.150;2023-03-20T03:45:36;101844.81;;;16.51;52.67
62126;BME280;48112;53.282;6.150;2023-03-20T03:46:40;101840.16;;;16.51;52.75
62126;BME280;48112;53.282;6.150;2023-03-20T03:47:46;101844.81;;;16.51;52.65
62126;BME280;48112;53.282;6.150;2023-03-20T03:48:54;101846.41;;;16.52;53.03
62126;BME280;48112;53.282;6.150;2023-03-20T03:49:57;101833.91;;;16.51;52.70
62126;BME280;48112;53.282;6.150;2023-03-20T03:51:04;101828.47;;;16.51;52.70
62126;BME280;48112;53.282;6.150;2023-03-20T03:52:13;101833.91;;;16.51;52.93
62126;BME280;48112;53.282;6.150;2023-03-20T03:53:19;101833.13;;;16.50;52.62
62126;BME280;48112;53.282;6.150;2023-03-20T03:54:23;101825.75;;;16.51;52.63
62126;BME280;48112;53.282;6.150;2023-03-20T03:55:48;101828.47;;;16.51;52.64
62126;BME280;48112;53.282;6.150;2023-03-20T03:56:52;101826.88;;;16.50;52.91
62126;BME280;48112;53.282;6.150;2023-03-20T03:57:56;101823.03;;;16.51;52.83
62126;BME280;48112;53.282;6.150;2023-03-20T03:59:00;101830.41;;;16.50;52.75
62126;BME280;48112;53.282;6.150;2023-03-20T04:00:05;101826.88;;;16.50;52.67
62126;BME280;48112;53.282;6.150;2023-03-20T04:01:14;101826.88;;;16.50;52.60
62126;BME280;48112;53.282;6.150;2023-03-20T04:02:17;101823.34;;;16.49;52.79
62126;BME280;48112;53.282;6.150;2023-03-20T04:03:23;101820.28;;;16.51;52.93
62126;BME280;48112;53.282;6.150;2023-03-20T04:04:25;101823.03;;;16.51;53.07
62126;BME280;48112;53.282;6.150;2023-03-20T04:05:29;101820.28;;;16.51;52.80
62126;BME280;48112;53.282;6.150;2023-03-20T04:06:33;101818.69;;;16.50;52.60
62126;BME280;48112;53.282;6.150;2023-03-20T04:07:36;101812.13;;;16.51;52.55
62126;BME280;48112;53.282;6.150;2023-03-20T04:08:39;101812.44;;;16.49;52.71
62126;BME280;48112;53.282;6.150;2023-03-20T04:09:42;101807.78;;;16.50;52.84
62126;BME280;48112;53.282;6.150;2023-03-20T04:10:43;101813.25;;;16.50;52.63
62126;BME280;48112;53.282;6.150;2023-03-20T04:11:48;101810.50;;;16.50;52.84
62126;BME280;48112;53.282;6.150;2023-03-20T04:12:52;101814.84;;;16.51;52.66
62126;BME280;48112;53.282;6.150;2023-03-20T04:13:55;101815.97;;;16.50;52.64
62126;BME280;48112;53.282;6.150;2023-03-20T04:14:57;101816.75;;;16.50;52.82
62126;BME280;48112;53.282;6.150;2023-03-20T04:16:03;101816.75;;;16.50;52.75
62126;BME280;48112;53.282;6.150;2023-03-20T04:17:05;101818.69;;;16.50;53.11
62126;BME280;48112;53.282;6.150;2023-03-20T04:18:08;101821.41;;;16.50;52.83
62126;BME280;48112;53.282;6.150;2023-03-20T04:19:12;101814.84;;;16.51;52.62
62126;BME280;48112;53.282;6.150;2023-03-20T04:20:18;101810.50;;;16.50;52.75
62126;BME280;48112;53.282;6.150;2023-03-20T04:21:21;101818.34;;;16.51;52.85
62126;BME280;48112;53.282;6.150;2023-03-20T04:22:25;101813.25;;;16.50;52.87
62126;BME280;48112;53.282;6.150;2023-03-20T04:23:28;101810.50;;;16.50;52.65
62126;BME280;48112;53.282;6.150;2023-03-20T04:24:31;101812.13;;;16.51;52.57
62126;BME280;48112;53.282;6.150;2023-03-20T04:25:33;101809.38;;;16.51;52.97
62126;BME280;48112;53.282;6.150;2023-03-20T04:26:36;101812.13;;;16.51;52.61
62126;BME280;48112;53.282;6.150;2023-03-20T04:27:39;101806.66;;;16.51;52.63
62126;BME280;48112;53.282;6.150;2023-03-20T04:28:49;101811.31;;;16.50;52.75
62126;BME280;48112;53.282;6.150;2023-03-20T04:30:11;101812.13;;;16.51;52.80
62126;BME280;48112;53.282;6.150;2023-03-20T04:31:32;101806.66;;;16.51;52.50
62126;BME280;48112;53.282;6.150;2023-03-20T04:32:50;101805.88;;;16.50;52.58
62126;BME280;48112;53.282;6.150;2023-03-20T04:33:59;101805.88;;;16.50;52.41
62126;BME280;48112;53.282;6.150;2023-03-20T04:35:16;101803.13;;;16.50;52.65
62126;BME280;48112;53.282;6.150;2023-03-20T04:36:31;101805.88;;;16.50;52.85
62126;BME280;48112;53.282;6.150;2023-03-20T04:37:35;101803.94;;;16.51;52.75
62126;BME280;48112;53.282;6.150;2023-03-20T04:38:40;101809.38;;;16.51;52.41
62126;BME280;48112;53.282;6.150;2023-03-20T04:39:43;101805.88;;;16.50;52.54
62126;BME280;48112;53.282;6.150;2023-03-20T04:40:45;101812.13;;;16.51;52.55
62126;BME280;48112;53.282;6.150;2023-03-20T04:41:48;101812.13;;;16.51;52.79
62126;BME280;48112;53.282;6.150;2023-03-20T04:42:52;101802.34;;;16.50;52.74
62126;BME280;48112;53.282;6.150;2023-03-20T04:43:55;101799.63;;;16.50;52.46
62126;BME280;48112;53.282;6.150;2023-03-20T04:44:58;101803.94;;;16.51;52.80
62126;BME280;48112;53.282;6.150;2023-03-20T04:46:03;101806.66;;;16.51;52.83
62126;BME280;48112;53.282;6.150;2023-03-20T04:47:04;101810.16;;;16.51;52.56
62126;BME280;48112;53.282;6.150;2023-03-20T04:48:12;101812.13;;;16.51;52.47
62126;BME280;48112;53.282;6.150;2023-03-20T04:49:14;101814.84;;;16.51;52.76
62126;BME280;48112;53.282;6.150;2023-03-20T04:50:17;101816.75;;;16.50;52.53
62126;BME280;48112;53.282;6.150;2023-03-20T04:51:19;101819.50;;;16.50;52.54
62126;BME280;48112;53.282;6.150;2023-03-20T04:52:24;101814.84;;;16.51;52.72
62126;BME280;48112;53.282;6.150;2023-03-20T04:53:25;101822.22;;;16.50;52.58
62126;BME280;48112;53.282;6.150;2023-03-20T04:54:29;101817.56;;;16.51;52.55
62126;BME280;48112;53.282;6.150;2023-03-20T04:55:30;101817.56;;;16.51;52.49
62126;BME280;48112;53.282;6.150;2023-03-20T04:56:33;101817.56;;;16.51;52.64
62126;BME280;48112;53.282;6.150;2023-03-20T04:57:46;101814.03;;;16.50;52.49
62126;BME280;48112;53.282;6.150;2023-03-20T04:58:50;101817.56;;;16.51;52.42
62126;BME280;48112;53.282;6.150;2023-03-20T04:59:54;101815.59;;;16.51;52.53
62126;BME280;48112;53.282;6.150;2023-03-20T05:00:57;101818.69;;;16.50;52.48
62126;BME280;48112;53.282;6.150;2023-03-20T05:01:58;101821.41;;;16.50;52.63
62126;BME280;48112;53.282;6.150;2023-03-20T05:03:01;101824.16;;;16.50;52.71
62126;BME280;48112;53.282;6.150;2023-03-20T05:04:03;101825.75;;;16.51;52.65
62126;BME280;48112;53.282;6.150;2023-03-20T05:05:07;101823.03;;;16.51;52.66
62126;BME280;48112;53.282;6.150;2023-03-20T05:06:09;101814.03;;;16.50;52.72
62126;BME280;48112;53.282;6.150;2023-03-20T05:07:15;101820.28;;;16.51;52.43
62126;BME280;48112;53.282;6.150;2023-03-20T05:08:29;101822.22;;;16.50;52.51
62126;BME280;48112;53.282;6.150;2023-03-20T05:09:34;101814.03;;;16.50;52.51
62126;BME280;48112;53.282;6.150;2023-03-20T05:10:38;101817.56;;;16.51;52.41
62126;BME280;48112;53.282;6.150;2023-03-20T05:11:59;101815.59;;;16.51;52.45
62126;BME280;48112;53.282;6.150;2023-03-20T05:13:15;101814.84;;;16.51;52.43
62126;BME280;48112;53.282;6.150;2023-03-20T05:14:39;101814.84;;;16.51;52.34
62126;BME280;48112;53.282;6.150;2023-03-20T05:16:02;101807.78;;;16.50;52.52
62126;BME280;48112;53.282;6.150;2023-03-20T05:17:25;101805.88;;;16.50;52.81
62126;BME280;48112;53.282;6.150;2023-03-20T05:18:39;101814.84;;;16.51;52.69
62126;BME280;48112;53.282;6.150;2023-03-20T05:19:49;101812.13;;;16.51;52.47
62126;BME280;48112;53.282;6.150;2023-03-20T05:21:08;101808.59;;;16.50;52.69
62126;BME280;48112;53.282;6.150;2023-03-20T05:22:19;101805.06;;;16.50;52.81
62126;BME280;48112;53.282;6.150;2023-03-20T05:23:51;101807.44;;;16.51;52.83
62126;BME280;48112;53.282;6.150;2023-03-20T05:25:08;101812.13;;;16.51;52.67
62126;BME280;48112;53.282;6.150;2023-03-20T05:26:23;101808.59;;;16.50;52.79
62126;BME280;48112;53.282;6.150;2023-03-20T05:27:46;101806.66;;;16.51;52.53
62126;BME280;48112;53.282;6.150;2023-03-20T05:29:11;101817.56;;;16.51;52.44
62126;BME280;48112;53.282;6.150;2023-03-20T05:30:43;101821.41;;;16.50;52.53
62126;BME280;48112;53.282;6.150;2023-03-20T05:32:07;101823.03;;;16.51;52.70
62126;BME280;48112;53.282;6.150;2023-03-20T05:33:14;101817.56;;;16.51;52.56
62126;BME280;48112;53.282;6.150;2023-03-20T05:34:40;101823.78;;;16.51;52.67
62126;BME280;48112;53.282;6.150;2023-03-20T05:36:12;101824.16;;;16.50;52.42
62126;BME280;48112;53.282;6.150;2023-03-20T05:37:30;101823.03;;;16.51;52.37
62126;BME280;48112;53.282;6.150;2023-03-20T05:38:40;101823.78;;;16.51;52.55
62126;BME280;48112;53.282;6.150;2023-03-20T05:39:52;101828.47;;;16.51;52.58
62126;BME280;48112;53.282;6.150;2023-03-20T05:41:21;101833.91;;;16.51;52.43
62126;BME280;48112;53.282;6.150;2023-03-20T05:42:37;101835.84;;;16.50;52.42
62126;BME280;48112;53.282;6.150;2023-03-20T05:44:05;101831.19;;;16.51;52.41
62126;BME280;48112;53.282;6.150;2023-03-20T05:45:19;101825.75;;;16.51;52.51
62126;BME280;48112;53.282;6.150;2023-03-20T05:46:27;101829.25;;;16.51;52.61
62126;BME280;48112;53.282;6.150;2023-03-20T05:47:48;101827.66;;;16.50;52.67
62126;BME280;48112;53.282;6.150;2023-03-20T05:48:59;101820.28;;;16.51;52.66
62126;BME280;48112;53.282;6.150;2023-03-20T05:50:25;101831.19;;;16.51;52.54
62126;BME280;48112;53.282;6.150;2023-03-20T05:51:47;101833.91;;;16.51;52.33
62126;BME280;48112;53.282;6.150;2023-03-20T05:53:13;101833.13;;;16.50;52.51
62126;BME280;48112;53.282;6.150;2023-03-20T05:54:34;101834.69;;;16.51;52.41